Time;durP1;ratioP1;P1;durP2;ratioP2;P2;SDS_P1;SDS_P2;PMS_P1;PMS_P2;Temp;Humidity;BMP_temperature;BMP_pressure;BME280_temperature;BME280_humidity;BME280_pressure;Samples;Min_cycle;Max_cycle;Signal;HPM_P1;HPM_P2
2022/04/16 00:01:08;;;;;;;21.00;13.02;;;;;;;7.46;100.00;103050.88;5068938;28;20052;-49
2022/04/16 00:03:37;;;;;;;20.58;13.27;;;;;;;7.47;100.00;103051.72;5068120;28;20048;-52
2022/04/16 00:06:05;;;;;;;20.83;13.48;;;;;;;7.47;100.00;103049.97;5069365;28;20048;-52
2022/04/16 00:08:33;;;;;;;17.48;12.30;;;;;;;7.47;100.00;103049.09;5068690;28;20072;-53
2022/04/16 00:11:02;;;;;;;20.58;12.70;;;;;;;7.45;100.00;103052.59;5069102;28;20105;-52
2022/04/16 00:13:32;;;;;;;20.70;12.82;;;;;;;7.35;100.00;103052.78;5069127;28;20095;-51
2022/04/16 00:16:00;;;;;;;19.73;13.00;;;;;;;7.27;100.00;103052.94;5068368;28;20132;-53
2022/04/16 00:18:28;;;;;;;17.60;12.73;;;;;;;7.23;100.00;103049.47;5067747;28;20072;-52
2022/04/16 00:20:57;;;;;;;16.63;12.20;;;;;;;7.21;100.00;103051.28;5068856;28;20063;-52
2022/04/16 00:23:26;;;;;;;16.13;11.73;;;;;;;7.22;100.00;103052.13;5068496;28;20048;-49
2022/04/16 00:25:56;;;;;;;19.55;12.43;;;;;;;7.20;100.00;103054.78;5068359;28;20554;-53
2022/04/16 00:28:27;;;;;;;16.90;11.90;;;;;;;7.11;100.00;103049.69;5068551;28;20048;-51
2022/04/16 00:30:57;;;;;;;18.05;12.38;;;;;;;7.15;100.00;103046.13;5068598;28;20063;-53
2022/04/16 00:33:26;;;;;;;19.58;12.20;;;;;;;7.11;100.00;103050.53;5067499;28;20744;-54
2022/04/16 00:35:54;;;;;;;17.75;12.00;;;;;;;7.11;100.00;103055.75;5068731;28;20048;-52
2022/04/16 00:38:23;;;;;;;18.23;12.65;;;;;;;7.05;100.00;103049.78;5068457;28;20072;-50
2022/04/16 00:40:52;;;;;;;16.95;11.75;;;;;;;7.03;100.00;103051.56;5068309;28;20056;-49
2022/04/16 00:43:24;;;;;;;21.08;12.35;;;;;;;6.96;100.00;103055.16;5068688;28;20048;-52
2022/04/16 00:45:53;;;;;;;17.80;12.65;;;;;;;6.94;100.00;103052.56;5067920;28;20501;-52
2022/04/16 00:48:24;;;;;;;18.48;12.20;;;;;;;6.89;100.00;103054.38;5065744;28;20055;-57
2022/04/16 00:50:54;;;;;;;17.95;12.38;;;;;;;6.89;100.00;103057.00;5067996;28;20044;-53
2022/04/16 00:53:25;;;;;;;18.98;12.20;;;;;;;6.86;100.00;103059.66;5068325;28;20151;-52
2022/04/16 00:55:53;;;;;;;20.25;12.75;;;;;;;6.81;100.00;103051.84;5068129;28;20652;-52
2022/04/16 00:58:21;;;;;;;16.80;11.25;;;;;;;6.76;100.00;103058.91;5068093;28;20062;-52
2022/04/16 01:00:49;;;;;;;19.13;12.45;;;;;;;6.75;100.00;103059.81;5067722;28;20045;-54
2022/04/16 01:03:19;;;;;;;17.15;11.77;;;;;;;6.71;100.00;103050.28;5067149;28;20712;-53
2022/04/16 01:05:48;;;;;;;16.98;12.20;;;;;;;6.66;100.00;103062.53;5067934;28;20376;-53
2022/04/16 01:08:18;;;;;;;20.65;12.82;;;;;;;6.67;100.00;103053.81;5067716;28;20048;-52
2022/04/16 01:10:46;;;;;;;19.58;12.30;;;;;;;6.63;100.00;103057.34;5067834;28;20052;-54
2022/04/16 01:13:18;;;;;;;19.30;13.02;;;;;;;6.62;100.00;103061.69;5067858;28;20056;-54
2022/04/16 01:15:47;;;;;;;18.02;12.65;;;;;;;6.60;100.00;103061.72;5066713;28;20044;-55
2022/04/16 01:18:15;;;;;;;18.88;12.35;;;;;;;6.54;100.00;103064.41;5066136;28;20059;-51
2022/04/16 01:20:44;;;;;;;20.27;12.90;;;;;;;6.53;100.00;103067.03;5067526;28;20052;-53
2022/04/16 01:23:14;;;;;;;18.92;13.05;;;;;;;6.51;100.00;103068.81;5067314;28;20751;-52
2022/04/16 01:25:44;;;;;;;19.40;12.43;;;;;;;6.48;100.00;103072.34;5068081;28;20056;-53
2022/04/16 01:28:13;;;;;;;21.13;14.10;;;;;;;6.46;100.00;103070.63;5067446;28;20048;-52
2022/04/16 01:30:41;;;;;;;23.45;13.35;;;;;;;6.42;100.00;103069.78;5067546;28;20059;-57
2022/04/16 01:33:10;;;;;;;19.60;14.10;;;;;;;6.38;100.00;103075.94;5066094;28;20050;-58
2022/04/16 01:35:38;;;;;;;21.77;14.55;;;;;;;6.33;100.00;103072.53;5067468;28;20094;-57
2022/04/16 01:38:07;;;;;;;21.83;14.82;;;;;;;6.31;100.00;103076.91;5066267;28;20067;-57
2022/04/16 01:40:38;;;;;;;22.40;14.07;;;;;;;6.31;100.00;103077.75;5067729;28;20516;-57
2022/04/16 01:43:07;;;;;;;21.85;14.70;;;;;;;6.28;100.00;103077.78;5068391;28;21222;-58
2022/04/16 01:45:35;;;;;;;21.40;14.18;;;;;;;6.28;100.00;103079.56;5068348;28;20507;-58
2022/04/16 01:48:03;;;;;;;20.30;13.68;;;;;;;6.28;100.00;103087.41;5066666;28;20052;-58
2022/04/16 01:50:31;;;;;;;20.30;13.63;;;;;;;6.29;100.00;103086.53;5067958;28;20539;-58
2022/04/16 01:53:00;;;;;;;22.50;14.55;;;;;;;6.23;100.00;103084.81;5026974;28;20061;-58
2022/04/16 01:55:28;;;;;;;24.83;15.38;;;;;;;6.19;100.00;103094.47;5026465;28;20052;-58
2022/04/16 01:57:58;;;;;;;25.48;14.90;;;;;;;6.17;100.00;103088.38;5027049;28;20536;-57
2022/04/16 02:00:26;;;;;;;22.27;14.25;;;;;;;6.16;100.00;103094.50;5027146;28;20061;-57
2022/04/16 02:02:54;;;;;;;23.50;15.30;;;;;;;6.14;100.00;103090.16;5025425;28;20045;-57
2022/04/16 02:05:22;;;;;;;26.00;15.45;;;;;;;6.07;100.00;103085.00;5027659;28;20868;-57
2022/04/16 02:07:51;;;;;;;26.35;15.10;;;;;;;6.06;100.00;103085.00;5026576;28;20132;-57
2022/04/16 02:10:19;;;;;;;21.33;15.18;;;;;;;5.99;100.00;103089.44;5027010;28;20084;-58
2022/04/16 02:12:47;;;;;;;26.00;15.40;;;;;;;5.98;100.00;103092.91;5026388;28;20057;-51
2022/04/16 02:15:17;;;;;;;24.00;14.90;;;;;;;5.96;100.00;103093.78;5027017;28;20053;-53
2022/04/16 02:17:45;;;;;;;26.45;15.90;;;;;;;5.90;100.00;103089.47;5026085;28;20051;-53
2022/04/16 02:20:13;;;;;;;25.60;16.88;;;;;;;5.88;100.00;103084.28;5027675;28;20084;-50
2022/04/16 02:22:43;;;;;;;24.83;15.70;;;;;;;5.91;100.00;103092.06;5026657;28;20072;-57
2022/04/16 02:25:13;;;;;;;22.40;15.35;;;;;;;5.95;100.00;103092.06;5027405;28;20049;-57
2022/04/16 02:27:42;;;;;;;26.20;15.40;;;;;;;5.90;100.00;103092.97;5027194;28;20099;-58
2022/04/16 02:30:13;;;;;;;21.48;14.27;;;;;;;5.90;100.00;103095.59;5026739;28;20061;-52
2022/04/16 02:32:44;;;;;;;24.75;15.18;;;;;;;5.89;100.00;103091.25;5026045;28;20527;-52
2022/04/16 02:35:13;;;;;;;22.80;14.77;;;;;;;5.88;100.00;103097.34;5027517;28;20037;-52
2022/04/16 02:37:43;;;;;;;25.70;16.80;;;;;;;5.80;100.00;103098.31;5026139;28;20077;-53
2022/04/16 02:40:12;;;;;;;24.95;15.68;;;;;;;5.76;100.00;103103.53;5026559;28;20400;-51
2022/04/16 02:42:42;;;;;;;26.20;14.93;;;;;;;5.78;100.00;103110.50;5026907;28;20049;-51
2022/04/16 02:47:59;;;;;;;24.27;15.88;;;;;;;5.71;100.00;103109.69;5025331;28;20052;-52
2022/04/16 02:50:28;;;;;;;24.48;15.23;;;;;;;5.69;100.00;103112.31;5027273;28;20408;-53
2022/04/16 02:52:58;;;;;;;22.83;14.48;;;;;;;5.68;100.00;103117.53;5065425;28;20052;-54
2022/04/16 02:55:27;;;;;;;25.95;16.20;;;;;;;5.57;100.00;103115.88;5067169;28;20751;-59
2022/04/16 02:57:55;;;;;;;25.30;15.85;;;;;;;5.59;100.00;103119.34;5066099;28;20044;-57
2022/04/16 03:00:25;;;;;;;26.88;17.42;;;;;;;5.58;100.00;103119.38;5065217;28;20036;-58
2022/04/16 03:02:54;;;;;;;24.20;16.38;;;;;;;5.62;100.00;103112.34;5066298;28;20052;-58
2022/04/16 03:05:23;;;;;;;29.13;17.33;;;;;;;5.58;100.00;103112.41;5066363;28;20549;-57
2022/04/16 03:07:51;;;;;;;27.08;16.27;;;;;;;5.57;100.00;103110.66;5066372;28;20407;-52
2022/04/16 03:10:20;;;;;;;27.67;17.40;;;;;;;5.57;100.00;103115.00;5064846;28;20040;-53
2022/04/16 03:12:51;;;;;;;26.45;16.17;;;;;;;5.52;100.00;103117.69;5066057;28;20525;-50
2022/04/16 03:18:08;;;;;;;24.73;15.40;;;;;;;5.43;100.00;103122.97;5064368;28;20574;-54
2022/04/16 03:20:38;;;;;;;30.80;16.55;;;;;;;5.40;100.00;103123.84;5066619;28;20041;-52
2022/04/16 03:23:06;;;;;;;24.05;16.02;;;;;;;5.44;100.00;103115.97;5067388;28;20099;-52
2022/04/16 03:25:35;;;;;;;25.10;16.70;;;;;;;5.48;100.00;103121.19;5070299;28;20462;-53
2022/04/16 03:28:03;;;;;;;26.73;16.48;;;;;;;5.47;100.00;103121.16;5068450;28;20048;-54
2022/04/16 03:30:31;;;;;;;27.58;16.88;;;;;;;5.46;100.00;103127.28;5069946;28;20134;-52
2022/04/16 03:33:00;;;;;;;24.25;15.32;;;;;;;5.43;100.00;103122.97;5067436;28;20146;-53
2022/04/16 03:35:28;;;;;;;26.85;16.35;;;;;;;5.42;100.00;103123.81;5070117;28;20052;-51
2022/04/16 03:37:57;;;;;;;25.02;15.85;;;;;;;5.39;100.00;103131.69;5069314;28;20044;-55
2022/04/16 03:40:26;;;;;;;23.10;15.85;;;;;;;5.38;100.00;103129.94;5069555;28;20045;-54
2022/04/16 03:42:58;;;;;;;26.40;17.48;;;;;;;5.33;100.00;103130.00;5069138;28;20503;-53
2022/04/16 03:45:28;;;;;;;28.45;16.75;;;;;;;5.32;100.00;103130.84;5069433;28;20492;-52
2022/04/16 03:47:57;;;;;;;27.20;16.92;;;;;;;5.23;100.00;103134.38;5067048;28;20074;-51
2022/04/16 03:50:27;;;;;;;25.48;16.80;;;;;;;5.30;100.00;103140.41;5070267;28;20036;-49
2022/04/16 03:52:57;;;;;;;26.48;17.33;;;;;;;5.23;100.00;103136.13;5068376;28;20056;-51
2022/04/16 04:01:00;;;;;;;27.83;17.98;;;;;;;5.22;100.00;103143.09;5067583;28;20519;-54
2022/04/16 04:03:29;;;;;;;26.23;17.63;;;;;;;5.21;100.00;103141.38;5067578;28;20574;-52
2022/04/16 04:05:58;;;;;;;30.02;18.33;;;;;;;5.19;100.00;103142.25;5069402;28;20504;-53
2022/04/16 04:08:28;;;;;;;27.45;18.05;;;;;;;5.24;100.00;103149.16;5069167;28;20106;-52
2022/04/16 04:10:56;;;;;;;29.50;19.20;;;;;;;5.18;100.00;103146.59;5068911;28;20359;-52
2022/04/16 04:13:24;;;;;;;31.95;20.17;;;;;;;5.27;100.00;103157.88;5068951;28;20102;-52
2022/04/16 04:15:53;;;;;;;28.85;18.65;;;;;;;5.30;100.00;103152.63;5068550;28;20102;-52
2022/04/16 04:18:22;;;;;;;32.58;19.33;;;;;;;5.19;100.00;103153.53;5066916;28;20052;-52
2022/04/16 04:20:51;;;;;;;29.30;19.42;;;;;;;5.17;100.00;103155.31;5069570;28;20052;-51
2022/04/16 04:23:19;;;;;;;29.33;18.20;;;;;;;5.17;100.00;103155.31;5069319;28;20491;-53
2022/04/16 04:25:49;;;;;;;28.42;18.08;;;;;;;5.20;100.00;103151.81;5068120;28;20048;-52
2022/04/16 04:28:17;;;;;;;33.35;19.38;;;;;;;5.13;100.00;103160.56;5068391;28;20113;-54
2022/04/16 04:30:45;;;;;;;32.03;21.45;;;;;;;5.14;100.00;103162.25;5068707;28;20082;-49
2022/04/16 04:33:13;;;;;;;31.45;18.92;;;;;;;5.14;100.00;103165.75;5066838;28;20048;-51
2022/04/16 04:35:42;;;;;;;35.05;20.85;;;;;;;5.16;100.00;103166.59;5068118;28;20044;-52
2022/04/16 04:38:10;;;;;;;35.13;21.45;;;;;;;5.15;100.00;103164.00;5068309;28;20052;-51
2022/04/16 04:40:39;;;;;;;32.70;19.90;;;;;;;5.14;100.00;103172.69;5068347;28;20504;-50
2022/04/16 04:43:08;;;;;;;35.17;20.48;;;;;;;5.04;100.00;103177.97;5068494;28;20048;-52
2022/04/16 04:45:36;;;;;;;33.53;21.10;;;;;;;5.06;100.00;103172.75;5068713;28;20055;-52
2022/04/16 04:48:05;;;;;;;33.58;21.38;;;;;;;5.01;100.00;103175.38;5066250;28;20040;-53
2022/04/16 04:50:36;;;;;;;35.38;21.25;;;;;;;5.10;100.00;103176.19;5068686;28;20059;-50
2022/04/16 04:53:05;;;;;;;35.85;20.90;;;;;;;5.06;100.00;103176.22;5068152;28;20190;-58
2022/04/16 04:55:33;;;;;;;33.63;20.88;;;;;;;5.00;100.00;103180.59;5067929;28;20056;-58
2022/04/16 04:58:01;;;;;;;36.88;21.02;;;;;;;5.00;100.00;103180.59;5067590;28;20052;-57
2022/04/16 05:00:31;;;;;;;33.88;20.92;;;;;;;5.07;100.00;103192.72;5067899;28;20041;-56
2022/04/16 05:02:59;;;;;;;36.53;21.58;;;;;;;5.04;100.00;103193.59;5066546;28;20125;-57
2022/04/16 05:05:27;;;;;;;33.00;20.85;;;;;;;5.08;100.00;103200.56;5068012;28;20059;-57
2022/04/16 05:07:55;;;;;;;38.45;22.80;;;;;;;5.08;100.00;103203.19;5067677;28;20043;-57
2022/04/16 05:10:23;;;;;;;34.53;21.27;;;;;;;5.04;100.00;103206.66;5067812;28;20569;-58
2022/04/16 05:12:51;;;;;;;35.78;22.15;;;;;;;5.08;100.00;103200.56;5067511;28;20432;-57
2022/04/16 05:15:19;;;;;;;39.28;22.83;;;;;;;5.08;100.00;103199.69;5067679;28;20127;-57
2022/04/16 05:17:49;;;;;;;41.72;23.40;;;;;;;5.08;100.00;103207.50;5065842;28;20499;-57
2022/04/16 05:20:17;;;;;;;36.00;22.05;;;;;;;5.10;100.00;103215.31;5068125;28;20098;-57
2022/04/16 05:22:45;;;;;;;39.70;23.52;;;;;;;5.05;100.00;103217.97;5067659;28;20052;-57
2022/04/16 05:25:13;;;;;;;41.60;24.42;;;;;;;5.10;100.00;103221.44;5067515;28;20076;-58
2022/04/16 05:27:41;;;;;;;39.60;24.05;;;;;;;5.10;100.00;103220.53;5067540;28;20040;-58
2022/04/16 05:30:22;;;;;;;38.47;24.25;;;;;;;5.16;100.00;103218.78;5068020;28;20056;-58
2022/04/16 05:32:52;;;;;;;39.85;24.08;;;;;;;5.23;100.00;103224.84;5065759;28;20060;-58
2022/04/16 05:35:20;;;;;;;41.33;24.13;;;;;;;5.30;100.00;103226.53;5067847;28;20041;-59
2022/04/16 05:37:48;;;;;;;36.85;22.75;;;;;;;5.35;100.00;103224.78;5066930;28;20538;-58
2022/04/16 05:40:16;;;;;;;37.85;23.95;;;;;;;5.37;100.00;103224.75;5067666;28;20044;-58
2022/04/16 05:42:45;;;;;;;41.10;24.60;;;;;;;5.40;100.00;103225.63;5066972;28;20403;-58
2022/04/16 05:45:14;;;;;;;41.00;24.73;;;;;;;5.39;100.00;103234.31;5067273;28;20151;-57
2022/04/16 05:47:44;;;;;;;40.00;24.58;;;;;;;5.49;100.00;103231.66;5064745;28;20057;-58
2022/04/16 05:50:14;;;;;;;40.60;25.55;;;;;;;5.49;100.00;103237.75;5067796;28;20044;-57
2022/04/16 05:52:42;;;;;;;39.55;24.60;;;;;;;5.51;100.00;103237.75;5067096;28;20053;-57
2022/04/16 05:55:11;;;;;;;41.17;24.02;;;;;;;5.51;100.00;103243.00;5067528;28;20049;-57
2022/04/16 05:57:40;;;;;;;39.50;23.88;;;;;;;5.65;100.00;103240.28;5067202;28;20406;-57
2022/04/16 06:00:12;;;;;;;41.03;24.48;;;;;;;5.66;100.00;103237.66;5067020;28;20094;-53
2022/04/16 06:02:42;;;;;;;42.13;26.08;;;;;;;5.73;100.00;103243.72;5066380;28;20499;-53
2022/04/16 06:05:10;;;;;;;43.30;26.40;;;;;;;5.81;100.00;103241.91;5067401;28;20048;-53
2022/04/16 06:07:40;;;;;;;41.53;25.42;;;;;;;5.88;100.00;103241.00;5066775;28;20045;-52
2022/04/16 06:10:08;;;;;;;38.53;25.42;;;;;;;6.00;100.00;103249.63;5067660;28;20061;-52
2022/04/16 06:12:36;;;;;;;38.25;24.70;;;;;;;6.02;100.00;103247.91;5066948;28;20051;-53
2022/04/16 06:15:05;;;;;;;38.45;24.08;;;;;;;6.07;100.00;103249.59;5066693;28;20068;-52
2022/04/16 06:17:33;;;;;;;39.10;23.30;;;;;;;6.14;100.00;103254.78;5066583;28;20052;-54
2022/04/16 06:20:01;;;;;;;40.30;24.08;;;;;;;6.18;100.00;103248.66;5065836;28;20053;-52
2022/04/16 06:22:29;;;;;;;39.38;24.15;;;;;;;6.27;100.00;103259.00;5066952;28;20048;-53
2022/04/16 06:24:59;;;;;;;38.10;24.98;;;;;;;6.36;100.00;103264.16;5066470;28;20476;-52
2022/04/16 06:27:33;;;;;;;38.92;23.90;;;;;;;6.44;100.00;103258.88;5066568;28;20071;-52
2022/04/16 06:30:01;;;;;;;37.85;23.60;;;;;;;6.46;100.00;103259.72;5066473;28;20060;-52
2022/04/16 06:32:29;;;;;;;35.00;22.65;;;;;;;6.49;100.00;103262.31;5067222;28;20128;-52
2022/04/16 06:34:57;;;;;;;36.08;21.60;;;;;;;6.55;100.00;103261.38;5065513;28;20044;-52
2022/04/16 06:37:25;;;;;;;38.38;23.30;;;;;;;6.57;100.00;103268.34;5066773;28;20053;-52
2022/04/16 06:39:53;;;;;;;35.67;22.92;;;;;;;6.64;100.00;103265.66;5066603;28;20453;-55
2022/04/16 06:42:22;;;;;;;33.78;22.20;;;;;;;6.68;100.00;103269.97;5067082;28;20052;-53
2022/04/16 06:44:51;;;;;;;36.97;23.75;;;;;;;6.81;100.00;103270.72;5066341;28;20511;-54
2022/04/16 06:47:19;;;;;;;36.63;22.98;;;;;;;6.86;100.00;103275.00;5066893;28;20126;-52
2022/04/16 06:49:47;;;;;;;34.33;22.83;;;;;;;6.97;100.00;103268.78;5064682;28;20052;-53
2022/04/16 06:52:15;;;;;;;34.15;22.00;;;;;;;7.12;100.00;103268.63;5066691;28;20057;-51
2022/04/16 06:54:43;;;;;;;34.17;21.63;;;;;;;7.20;100.00;103263.28;5065298;28;20056;-54
2022/04/16 06:57:11;;;;;;;32.13;20.73;;;;;;;7.35;100.00;103277.91;5066069;28;20080;-54
2022/04/16 06:59:42;;;;;;;33.72;21.80;;;;;;;7.42;100.00;103269.97;5069282;28;20192;-54
2022/04/16 07:02:11;;;;;;;32.78;20.67;;;;;;;7.59;100.00;103272.38;5070198;28;20070;-53
2022/04/16 07:04:40;;;;;;;33.65;20.02;;;;;;;7.72;100.00;103275.69;5068967;28;20156;-54
2022/04/16 07:07:09;;;;;;;34.97;22.33;;;;;;;7.85;100.00;103271.13;5070422;28;20534;-53
2022/04/16 07:09:39;;;;;;;33.78;20.67;;;;;;;7.94;100.00;103273.59;5069866;28;20407;-50
2022/04/16 07:12:09;;;;;;;29.25;19.42;;;;;;;8.00;100.00;103274.41;5070682;28;20531;-54
2022/04/16 07:14:40;;;;;;;30.00;19.88;;;;;;;8.09;100.00;103285.59;5070003;28;20051;-53
2022/04/16 07:17:09;;;;;;;31.73;20.40;;;;;;;8.24;100.00;103278.41;5070064;28;20052;-51
2022/04/16 07:19:38;;;;;;;28.95;19.35;;;;;;;8.33;100.00;103274.75;5068742;28;20053;-51
2022/04/16 07:22:06;;;;;;;31.40;19.73;;;;;;;8.48;100.00;103279.78;5070257;28;20055;-52
2022/04/16 07:24:38;;;;;;;29.27;19.02;;;;;;;8.62;100.00;103277.75;5070125;28;20070;-53
2022/04/16 07:27:06;;;;;;;26.77;18.45;;;;;;;8.79;100.00;103279.19;5070381;28;20139;-54
2022/04/16 07:29:34;;;;;;;29.50;18.27;;;;;;;8.99;100.00;103280.59;5069618;28;20037;-54
2022/04/16 07:32:05;;;;;;;24.92;16.70;;;;;;;9.07;100.00;103279.53;5069464;28;20052;-52
2022/04/16 07:34:33;;;;;;;24.83;16.40;;;;;;;9.02;100.00;103285.78;5068205;28;20399;-53
2022/04/16 07:37:01;;;;;;;27.80;17.45;;;;;;;9.09;100.00;103280.38;5069476;28;20052;-53
2022/04/16 07:39:29;;;;;;;25.50;16.85;;;;;;;9.34;100.00;103284.25;5069250;28;20052;-53
2022/04/16 07:41:57;;;;;;;25.88;17.00;;;;;;;9.54;100.00;103282.03;5069830;28;20448;-54
2022/04/16 07:44:25;;;;;;;26.17;16.65;;;;;;;9.63;100.00;103288.88;5069392;28;20110;-54
2022/04/16 07:46:53;;;;;;;24.50;17.17;;;;;;;9.59;100.00;103293.31;5069054;28;20502;-52
2022/04/16 07:49:23;;;;;;;22.88;15.27;;;;;;;9.81;100.00;103292.84;5066722;28;20123;-52
2022/04/16 07:51:51;;;;;;;23.38;16.35;;;;;;;9.98;100.00;103292.47;5069395;28;20465;-52
2022/04/16 07:54:19;;;;;;;24.52;16.23;;;;;;;10.19;100.00;103284.97;5069515;28;20372;-55
2022/04/16 07:56:47;;;;;;;23.23;15.25;;;;;;;10.39;100.00;103288.00;5069591;28;20483;-54
2022/04/16 07:59:15;;;;;;;23.30;15.30;;;;;;;10.51;100.00;103288.56;5069283;28;20135;-54
2022/04/16 08:01:43;;;;;;;23.17;14.65;;;;;;;10.71;99.49;103290.69;5068963;28;20060;-55
2022/04/16 08:04:11;;;;;;;22.65;13.88;;;;;;;10.92;97.14;103295.38;5068444;28;20051;-52
2022/04/16 08:06:41;;;;;;;22.52;14.75;;;;;;;11.07;93.98;103288.81;5068334;28;20048;-54
2022/04/16 08:09:09;;;;;;;19.38;14.75;;;;;;;11.31;94.70;103287.22;5067898;28;20044;-55
2022/04/16 08:11:37;;;;;;;22.08;15.23;;;;;;;11.42;91.98;103299.22;5068645;28;20062;-56
2022/04/16 08:14:05;;;;;;;20.48;13.70;;;;;;;11.53;90.60;103289.19;5068804;28;20048;-55
2022/04/16 08:16:34;;;;;;;20.98;13.13;;;;;;;11.58;89.93;103294.34;5068713;28;20045;-54
2022/04/16 08:19:02;;;;;;;20.50;14.13;;;;;;;11.78;91.05;103285.81;5067558;28;20053;-56
2022/04/16 08:21:31;;;;;;;19.30;12.52;;;;;;;12.03;89.12;103287.72;5068864;28;20475;-56
2022/04/16 08:24:13;;;;;;;19.45;12.60;;;;;;;12.00;87.00;103284.25;5067869;28;20044;-56
2022/04/16 08:26:41;;;;;;;18.63;13.05;;;;;;;12.23;85.17;103282.66;5069591;28;20052;-53
2022/04/16 08:29:09;;;;;;;19.05;13.05;;;;;;;12.48;86.13;103292.38;5069332;28;20905;-56
2022/04/16 08:31:37;;;;;;;17.92;12.30;;;;;;;12.68;83.66;103284.59;5068719;28;20049;-54
2022/04/16 08:34:25;;;;;;;19.63;12.45;;;;;;;12.91;82.54;103280.28;5067761;28;20483;-54
2022/04/16 08:36:54;;;;;;;18.20;11.85;;;;;;;13.04;81.30;103285.97;5069223;28;20060;-55
2022/04/16 08:39:23;;;;;;;18.30;12.40;;;;;;;12.91;81.00;103295.25;5069111;28;20048;-56
2022/04/16 08:41:52;;;;;;;17.35;12.00;;;;;;;12.97;80.94;103293.25;5067998;28;20072;-54
2022/04/16 08:44:20;;;;;;;17.58;11.45;;;;;;;13.09;80.74;103294.59;5069463;28;20095;-54
2022/04/16 08:46:48;;;;;;;19.30;11.80;;;;;;;12.98;80.61;103296.78;5068995;28;20048;-53
2022/04/16 08:49:16;;;;;;;17.13;11.10;;;;;;;13.19;80.13;103300.41;5068001;28;20041;-56
2022/04/16 08:51:45;;;;;;;19.02;12.20;;;;;;;13.45;78.98;103303.88;5069224;28;20380;-55
2022/04/16 08:54:13;;;;;;;17.55;11.32;;;;;;;13.34;77.13;103312.16;5069401;28;20507;-56
2022/04/16 08:56:42;;;;;;;16.73;11.70;;;;;;;13.34;76.88;103313.03;5068346;28;20048;-55
2022/04/16 08:59:11;;;;;;;19.00;12.10;;;;;;;13.09;78.50;103314.84;5068600;28;20051;-56
2022/04/16 09:01:39;;;;;;;15.80;10.85;;;;;;;13.37;77.78;103308.59;5068022;28;20044;-56
2022/04/16 09:04:07;;;;;;;15.80;10.40;;;;;;;13.59;75.32;103313.91;5067301;28;20060;-56
2022/04/16 09:06:35;;;;;;;18.50;11.13;;;;;;;13.57;75.00;103307.84;5069202;28;20119;-56
2022/04/16 09:09:11;;;;;;;16.15;10.35;;;;;;;13.95;73.68;103306.31;5068059;28;20041;-55
2022/04/16 09:11:48;;;;;;;18.40;10.88;;;;;;;14.12;73.18;103312.69;5068615;28;20044;-56
2022/04/16 09:14:17;;;;;;;14.93;10.07;;;;;;;14.24;71.76;103309.53;5069194;28;20056;-56
2022/04/16 09:16:45;;;;;;;20.45;11.50;;;;;;;14.53;71.35;103304.78;5067950;28;20052;-55
2022/04/16 09:19:17;;;;;;;16.85;11.13;;;;;;;14.69;70.14;103297.94;5066801;28;20049;-54
2022/04/16 09:21:45;;;;;;;17.23;10.97;;;;;;;14.79;68.24;103300.16;5068325;28;20523;-56
2022/04/16 09:24:14;;;;;;;16.30;10.57;;;;;;;15.03;67.27;103298.22;5069057;28;20457;-57
2022/04/16 09:26:42;;;;;;;15.32;11.10;;;;;;;15.14;67.38;103298.59;5068664;28;20056;-57
2022/04/16 09:29:14;;;;;;;13.95;9.13;;;;;;;15.08;66.15;103300.66;5068179;28;20074;-56
2022/04/16 09:31:44;;;;;;;14.07;10.00;;;;;;;15.19;65.47;103299.25;5068495;28;20936;-56
2022/04/16 09:34:17;;;;;;;14.73;9.88;;;;;;;15.34;64.69;103296.81;5067112;28;20044;-56
2022/04/16 09:36:46;;;;;;;14.95;10.20;;;;;;;15.38;64.26;103290.44;5068354;28;20062;-59
2022/04/16 09:39:16;;;;;;;15.20;9.07;;;;;;;15.31;63.98;103286.34;5068305;28;20079;-56
2022/04/16 09:41:51;;;;;;;13.25;9.32;;;;;;;15.49;63.07;103288.13;5068363;28;20059;-56
2022/04/16 09:44:21;;;;;;;15.50;9.68;;;;;;;15.55;63.05;103286.97;5068330;28;20071;-56
2022/04/16 09:46:55;;;;;;;13.60;9.52;;;;;;;15.99;62.72;103280.47;5067637;28;20154;-55
2022/04/16 09:49:24;;;;;;;15.32;9.90;;;;;;;15.98;61.24;103271.66;5066350;28;20059;-56
2022/04/16 09:51:52;;;;;;;13.68;9.40;;;;;;;16.10;61.52;103264.91;5067743;28;20052;-59
2022/04/16 09:54:21;;;;;;;14.02;9.18;;;;;;;15.62;61.17;103259.22;5068146;28;20388;-59
2022/04/16 09:56:50;;;;;;;13.55;9.27;;;;;;;16.01;60.88;103255.59;5068067;28;20449;-56
2022/04/16 09:59:19;;;;;;;13.68;8.85;;;;;;;16.01;60.32;103255.59;5068032;28;20110;-57
2022/04/16 10:01:48;;;;;;;12.40;7.72;;;;;;;16.19;59.48;103251.13;5067673;28;20040;-57
2022/04/16 10:04:17;;;;;;;13.05;8.93;;;;;;;16.31;59.48;103251.47;5067430;28;20135;-56
2022/04/16 10:06:45;;;;;;;13.13;8.25;;;;;;;16.54;58.14;103261.72;5067859;28;20048;-57
2022/04/16 10:09:17;;;;;;;13.75;8.75;;;;;;;16.35;57.19;103258.31;5067912;28;20090;-57
2022/04/16 10:14:46;;;;;;;13.38;8.50;;;;;;;16.68;56.55;103257.50;5050426;28;20068;-57
2022/04/16 10:17:26;;;;;;;11.63;8.18;;;;;;;16.77;55.77;103266.75;5067920;28;20376;-56
2022/04/16 10:19:55;;;;;;;12.13;7.85;;;;;;;16.16;56.23;103259.25;5066072;28;20044;-57
2022/04/16 10:22:24;;;;;;;11.93;7.75;;;;;;;16.46;56.34;103255.13;5068034;28;20048;-56
2022/04/16 10:24:56;;;;;;;10.57;6.03;;;;;;;16.65;53.92;103250.53;5067335;28;20052;-56
2022/04/16 10:27:27;;;;;;;10.23;6.22;;;;;;;17.02;53.49;103247.75;5067775;28;20144;-57
2022/04/16 10:30:00;;;;;;;11.10;6.65;;;;;;;17.20;52.51;103257.34;5067740;28;20051;-57
2022/04/16 10:32:39;;;;;;;10.07;5.68;;;;;;;17.03;50.48;103252.97;5067718;28;20048;-56
2022/04/16 10:35:12;;;;;;;8.82;5.05;;;;;;;17.71;50.95;103242.97;5071519;28;20052;-57
2022/04/16 10:37:42;;;;;;;8.75;4.95;;;;;;;17.66;48.25;103243.25;5071420;28;20056;-57
2022/04/16 10:40:18;;;;;;;10.85;5.15;;;;;;;17.71;47.94;103232.34;5071529;28;20064;-57
2022/04/16 10:42:51;;;;;;;7.25;4.63;;;;;;;18.02;45.61;103239.41;5070896;28;20040;-57
2022/04/16 10:45:23;;;;;;;8.30;4.78;;;;;;;18.09;45.71;103247.91;5071801;28;20048;-57
2022/04/16 10:47:53;;;;;;;8.60;4.82;;;;;;;18.47;45.70;103227.91;5069247;28;20483;-57
2022/04/16 10:50:22;;;;;;;8.63;4.43;;;;;;;18.94;45.85;103226.78;5071459;28;20037;-57
2022/04/16 10:52:54;;;;;;;9.20;4.93;;;;;;;18.86;44.02;103234.38;5070703;28;20049;-57
2022/04/16 10:55:30;;;;;;;8.35;4.90;;;;;;;19.21;43.53;103233.97;5071969;28;20056;-56
2022/04/16 10:58:00;;;;;;;8.73;5.30;;;;;;;18.96;45.14;103238.19;5070566;28;20056;-53
2022/04/16 11:00:44;;;;;;;9.70;6.20;;;;;;;18.88;43.01;103240.50;5069705;28;20045;-56
2022/04/16 11:03:17;;;;;;;10.25;5.75;;;;;;;18.57;44.44;103234.41;5069844;28;20067;-55
2022/04/16 11:05:45;;;;;;;9.93;4.78;;;;;;;18.71;43.95;103236.19;5071079;28;20128;-56
2022/04/16 11:08:18;;;;;;;7.60;4.53;;;;;;;18.90;42.29;103239.44;5071321;28;20044;-55
2022/04/16 11:10:46;;;;;;;7.35;3.88;;;;;;;18.88;41.87;103237.81;5069689;28;20044;-55
2022/04/16 11:13:14;;;;;;;7.30;4.07;;;;;;;18.74;41.49;103239.50;5071360;28;20380;-57
2022/04/16 11:15:44;;;;;;;7.90;4.38;;;;;;;19.20;41.23;103226.94;5071093;28;20060;-56
2022/04/16 11:18:14;;;;;;;7.50;4.10;;;;;;;19.47;40.27;103236.75;5069743;28;20101;-57
2022/04/16 11:20:43;;;;;;;7.50;3.97;;;;;;;18.90;39.17;103228.78;5071013;28;20040;-56
2022/04/16 11:23:12;;;;;;;7.47;4.03;;;;;;;19.03;39.32;103234.22;5069302;28;20049;-55
2022/04/16 11:34:20;;;;;;;6.97;3.45;;;;;;;19.68;38.43;103224.66;5068666;28;20164;-59
2022/04/16 11:36:51;;;;;;;7.82;3.60;;;;;;;19.73;37.79;103230.56;5070584;28;20403;-60
2022/04/16 11:39:20;;;;;;;6.80;3.30;;;;;;;19.99;37.90;103221.75;5070769;28;20048;-59
2022/04/16 11:41:53;;;;;;;7.18;3.85;;;;;;;19.69;36.37;103215.69;5070948;28;20043;-59
2022/04/16 11:44:38;;;;;;;6.82;3.78;;;;;;;19.65;36.57;103238.22;5070883;28;20064;-59